Time;durP1;ratioP1;P1;durP2;ratioP2;P2;SDS_P1;SDS_P2;PMS_P1;PMS_P2;Temp;Humidity;BMP_temperature;BMP_pressure;BME280_temperature;BME280_humidity;BME280_pressure;Samples;Min_cycle;Max_cycle;Signal;HPM_P1;HPM_P2
2021/12/07 00:01:37;;;;;;;9.43;2.90;;;5.20;99.90;;;;;;4084343;29;20176;-92
2021/12/07 00:03:38;;;;;;;7.80;3.13;;;5.20;99.90;;;;;;4084326;29;20746;-92
2021/12/07 00:05:39;;;;;;;15.17;4.03;;;5.30;99.90;;;;;;4084289;29;20191;-91
2021/12/07 00:07:42;;;;;;;19.87;3.67;;;5.40;99.90;;;;;;4084498;29;20191;-91
2021/12/07 00:09:49;;;;;;;18.97;3.23;;;5.30;99.90;;;;;;4084725;29;20629;-91
2021/12/07 00:11:50;;;;;;;13.13;3.00;;;5.30;99.90;;;;;;4084479;29;20728;-92
2021/12/07 00:13:52;;;;;;;14.67;3.13;;;5.30;99.90;;;;;;4084668;29;20663;-92
2021/12/07 00:15:53;;;;;;;11.07;3.20;;;5.20;99.90;;;;;;4084926;29;20183;-92
2021/12/07 00:17:54;;;;;;;14.23;3.07;;;5.30;99.90;;;;;;4084599;29;20203;-93
2021/12/07 00:19:55;;;;;;;19.67;3.50;;;5.10;99.90;;;;;;4085197;29;20688;-91
2021/12/07 00:21:56;;;;;;;18.93;2.97;;;5.10;99.90;;;;;;4100616;29;20197;-91
2021/12/07 00:23:57;;;;;;;17.57;3.50;;;5.10;99.90;;;;;;4084853;29;20632;-90
2021/12/07 00:25:58;;;;;;;9.83;3.23;;;5.00;99.90;;;;;;4087867;29;20175;-91
2021/12/07 00:27:58;;;;;;;22.37;4.00;;;5.00;99.90;;;;;;4103409;29;20174;-92
2021/12/07 00:29:59;;;;;;;16.17;3.20;;;5.00;99.90;;;;;;4087423;29;20699;-91
2021/12/07 00:32:24;;;;;;;15.10;2.60;;;5.10;99.90;;;;;;4087616;29;20665;-92
2021/12/07 00:36:37;;;;;;;18.73;3.40;;;5.10;99.90;;;;;;4103604;29;20280;-93
2021/12/07 00:38:39;;;;;;;17.90;2.90;;;5.10;99.90;;;;;;4103007;29;20263;-90
2021/12/07 00:40:41;;;;;;;14.93;2.60;;;5.20;99.90;;;;;;4104837;29;20179;-90
2021/12/07 00:42:45;;;;;;;17.47;3.13;;;5.20;99.90;;;;;;4093036;29;20211;-91
2021/12/07 00:44:46;;;;;;;15.57;2.50;;;5.30;99.90;;;;;;4103650;29;20263;-93
2021/12/07 00:46:48;;;;;;;15.60;3.13;;;5.30;99.90;;;;;;4104800;29;20172;-91
2021/12/07 00:48:49;;;;;;;9.77;2.23;;;5.30;99.90;;;;;;4087149;29;20258;-91
2021/12/07 00:50:50;;;;;;;12.87;2.57;;;5.20;99.90;;;;;;4087032;29;20176;-91
2021/12/07 00:52:52;;;;;;;15.87;2.73;;;5.20;99.90;;;;;;4086846;29;20179;-94
2021/12/07 00:54:52;;;;;;;20.93;2.93;;;5.40;99.90;;;;;;4086902;29;20188;-92
2021/12/07 00:56:53;;;;;;;16.00;2.40;;;5.50;99.90;;;;;;4103006;29;20206;-91
2021/12/07 00:58:55;;;;;;;19.40;2.80;;;5.50;99.90;;;;;;4087686;29;20675;-92
2021/12/07 01:01:09;;;;;;;12.03;2.07;;;5.40;99.90;;;;;;4087994;29;20176;-91
2021/12/07 01:03:10;;;;;;;13.73;2.27;;;5.40;99.90;;;;;;4103556;29;20233;-89
2021/12/07 01:05:18;;;;;;;13.50;1.93;;;5.30;99.90;;;;;;4086782;29;20274;-90
2021/12/07 01:07:48;;;;;;;13.07;2.50;;;5.30;99.90;;;;;;4087166;29;20179;-89
2021/12/07 01:24:40;;;;;;;14.10;2.30;;;5.20;99.90;;;;;;4102105;29;20543;-89
2021/12/07 01:26:03;;;;;;;22.83;3.23;;;5.20;99.90;;;;;;4102109;29;20179;-90
2021/12/07 01:28:14;;;;;;;17.47;2.90;;;5.20;99.90;;;;;;4086374;29;20187;-91
2021/12/07 01:30:23;;;;;;;13.70;2.20;;;5.20;99.90;;;;;;4086277;29;20175;-89
2021/12/07 01:37:33;;;;;;;19.13;2.57;;;5.10;99.90;;;;;;4102053;28;20178;-89
2021/12/07 01:46:01;;;;;;;10.20;2.30;;;5.10;99.90;;;;;;4101947;28;20190;-90
2021/12/07 01:50:49;;;;;;;12.40;2.20;;;4.90;99.90;;;;;;4102003;29;20175;-89
2021/12/07 01:59:35;;;;;;;11.87;1.90;;;4.80;99.90;;;;;;4101714;29;20175;-90
2021/12/07 02:01:37;;;;;;;11.17;1.87;;;4.80;99.90;;;;;;4085859;29;20175;-90
2021/12/07 02:03:41;;;;;;;12.33;2.03;;;4.80;99.90;;;;;;4085936;29;20607;-91
2021/12/07 02:05:44;;;;;;;11.03;1.60;;;4.70;99.90;;;;;;4085861;29;20175;-90
2021/12/07 02:07:45;;;;;;;12.50;2.00;;;4.80;99.90;;;;;;4085807;29;20175;-92
2021/12/07 02:09:52;;;;;;;13.27;2.13;;;4.80;99.90;;;;;;4101633;29;20170;-90
2021/12/07 02:11:59;;;;;;;8.43;1.47;;;4.80;99.90;;;;;;4085744;29;20179;-90
2021/12/07 02:16:01;;;;;;;14.30;2.07;;;4.70;99.90;;;;;;4101581;29;20774;-90
2021/12/07 02:18:02;;;;;;;11.63;1.97;;;4.70;99.90;;;;;;4101591;29;20179;-91
2021/12/07 02:20:04;;;;;;;8.63;1.87;;;4.80;99.90;;;;;;4101402;29;20651;-90
2021/12/07 02:22:05;;;;;;;17.43;2.40;;;4.80;99.90;;;;;;4085386;29;20171;-90
2021/12/07 02:24:13;;;;;;;12.70;1.87;;;4.80;99.90;;;;;;4085867;29;20218;-90
2021/12/07 02:26:14;;;;;;;8.07;1.50;;;4.80;99.90;;;;;;4085222;29;20172;-90
2021/12/07 02:28:16;;;;;;;10.17;1.50;;;4.80;99.90;;;;;;4101175;29;20210;-89
2021/12/07 02:30:20;;;;;;;7.87;1.60;;;4.80;99.90;;;;;;4085232;29;20202;-90
2021/12/07 02:32:21;;;;;;;8.23;1.60;;;4.80;99.90;;;;;;4085433;29;20187;-89
2021/12/07 02:34:24;;;;;;;13.30;1.03;;;4.70;99.90;;;;;;4085276;29;20204;-90
2021/12/07 02:36:25;;;;;;;18.00;2.10;;;4.70;99.90;;;;;;4085379;29;20556;-90
2021/12/07 02:38:28;;;;;;;11.73;1.50;;;4.60;99.90;;;;;;4085568;29;20175;-92
2021/12/07 02:40:29;;;;;;;12.47;1.63;;;4.60;99.90;;;;;;4085218;29;20182;-90
2021/12/07 02:42:29;;;;;;;9.57;1.57;;;4.50;99.90;;;;;;4085178;29;20199;-90
2021/12/07 02:44:32;;;;;;;13.40;1.97;;;4.50;99.90;;;;;;4084980;29;20207;-89
2021/12/07 02:46:38;;;;;;;10.53;1.57;;;4.50;99.90;;;;;;4085149;29;20514;-90
2021/12/07 02:48:39;;;;;;;12.33;1.63;;;4.40;99.90;;;;;;4084715;29;20656;-89
2021/12/07 02:50:40;;;;;;;10.17;1.63;;;4.40;99.90;;;;;;4084847;29;20172;-90
2021/12/07 02:52:42;;;;;;;11.77;1.77;;;4.30;99.90;;;;;;4085067;29;20172;-90
2021/12/07 02:54:46;;;;;;;7.73;1.33;;;4.30;99.90;;;;;;4085053;29;20557;-90
2021/12/07 02:56:53;;;;;;;11.57;1.40;;;4.30;99.90;;;;;;4085961;29;20180;-90
2021/12/07 02:59:01;;;;;;;8.53;1.90;;;4.20;99.90;;;;;;4085263;29;20179;-90
2021/12/07 03:01:10;;;;;;;14.23;1.93;;;4.30;99.90;;;;;;4085464;29;20215;-89
2021/12/07 03:03:13;;;;;;;15.27;2.10;;;4.30;99.90;;;;;;4085038;29;20234;-88
2021/12/07 03:26:14;;;;;;;11.03;1.50;;;4.10;99.90;;;;;;4100554;29;20666;-89
2021/12/07 03:28:16;;;;;;;15.20;1.90;;;4.10;99.90;;;;;;4100415;29;20680;-88
2021/12/07 03:30:18;;;;;;;17.50;1.97;;;4.00;99.90;;;;;;4084535;29;20186;-90
2021/12/07 03:32:18;;;;;;;16.37;1.80;;;3.90;99.90;;;;;;4084584;29;20282;-89
2021/12/07 03:34:20;;;;;;;13.80;1.80;;;4.00;99.90;;;;;;4084555;29;20195;-89
2021/12/07 03:36:22;;;;;;;13.47;2.00;;;4.00;99.90;;;;;;4084374;29;20239;-89
2021/12/07 03:38:25;;;;;;;7.90;1.63;;;4.00;99.90;;;;;;4084505;29;20211;-90
2021/12/07 03:40:27;;;;;;;12.60;2.43;;;4.10;99.90;;;;;;4084619;29;20172;-90
2021/12/07 03:42:28;;;;;;;14.03;1.60;;;4.10;99.90;;;;;;4084236;29;20195;-91
2021/12/07 03:44:30;;;;;;;8.97;1.30;;;4.10;99.90;;;;;;4084297;29;20209;-89
2021/12/07 03:46:31;;;;;;;13.90;2.00;;;4.20;99.90;;;;;;4084400;29;20731;-89
2021/12/07 03:48:33;;;;;;;5.50;1.50;;;4.30;99.90;;;;;;4100217;29;20170;-88
2021/12/07 03:50:35;;;;;;;8.63;1.83;;;4.30;99.90;;;;;;4084492;29;20278;-89
2021/12/07 03:52:36;;;;;;;8.57;1.50;;;4.30;99.90;;;;;;4084291;29;20179;-90
2021/12/07 03:54:37;;;;;;;6.80;1.33;;;4.30;99.90;;;;;;4100129;29;20221;-90
2021/12/07 03:56:38;;;;;;;11.93;1.47;;;4.30;99.90;;;;;;4084535;29;20278;-89
2021/12/07 03:58:41;;;;;;;9.27;1.50;;;4.30;99.90;;;;;;4084315;29;20251;-90
2021/12/07 04:00:44;;;;;;;13.90;1.67;;;4.30;99.90;;;;;;4084105;29;20191;-89
2021/12/07 04:02:48;;;;;;;9.13;1.80;;;4.30;99.90;;;;;;4100202;29;20770;-89
2021/12/07 04:04:58;;;;;;;14.60;1.90;;;4.30;99.90;;;;;;4084400;29;20592;-89
2021/12/07 04:06:59;;;;;;;9.93;1.83;;;4.30;99.90;;;;;;4084241;29;20183;-89
2021/12/07 04:09:01;;;;;;;12.97;1.80;;;4.30;99.90;;;;;;4084300;29;20262;-89
2021/12/07 04:11:02;;;;;;;10.67;1.77;;;4.30;99.90;;;;;;4084231;29;20380;-90
2021/12/07 04:13:03;;;;;;;9.17;1.70;;;4.30;99.90;;;;;;4100357;29;20178;-90
2021/12/07 04:15:06;;;;;;;8.00;1.47;;;4.40;99.90;;;;;;4084137;29;20691;-90
2021/12/07 04:17:07;;;;;;;9.73;1.43;;;4.50;99.90;;;;;;4084158;29;20179;-89
2021/12/07 04:19:08;;;;;;;12.27;1.67;;;4.40;99.90;;;;;;4084444;29;20550;-89
2021/12/07 04:21:10;;;;;;;16.17;1.80;;;4.40;99.90;;;;;;4084150;29;20181;-89
2021/12/07 04:23:10;;;;;;;17.77;1.80;;;4.40;99.90;;;;;;4083918;29;20223;-89
2021/12/07 04:25:13;;;;;;;13.63;2.20;;;4.30;99.90;;;;;;4084243;29;20691;-90
2021/12/07 04:27:14;;;;;;;15.27;1.93;;;4.40;99.90;;;;;;4100156;29;20749;-90
2021/12/07 04:29:15;;;;;;;12.77;2.13;;;4.40;99.90;;;;;;4084035;29;20176;-90
2021/12/07 04:31:16;;;;;;;8.33;1.60;;;4.30;99.90;;;;;;4099911;28;20269;-90
2021/12/07 04:33:16;;;;;;;9.57;1.30;;;4.30;99.90;;;;;;4084456;29;20258;-90
2021/12/07 04:35:18;;;;;;;13.70;1.97;;;4.20;99.90;;;;;;4083998;29;20199;-90
2021/12/07 04:37:19;;;;;;;12.00;1.83;;;4.10;99.90;;;;;;4083968;29;20179;-89
2021/12/07 04:39:19;;;;;;;15.43;1.97;;;4.20;99.90;;;;;;4083982;29;20614;-89
2021/12/07 04:41:20;;;;;;;15.47;1.90;;;4.20;99.90;;;;;;4084014;29;20182;-90
2021/12/07 04:43:21;;;;;;;9.43;1.83;;;4.20;99.90;;;;;;4083974;29;20214;-89
2021/12/07 04:49:59;;;;;;;6.93;2.37;;;4.00;99.90;;;;;;4099576;29;20187;-89
2021/12/07 04:58:42;;;;;;;14.23;1.63;;;3.90;99.90;;;;;;4099709;29;20273;-90
2021/12/07 05:00:43;;;;;;;18.47;2.10;;;3.90;99.90;;;;;;4083796;29;20738;-89
2021/12/07 05:02:50;;;;;;;19.10;1.97;;;3.90;99.90;;;;;;4084051;29;20206;-89
2021/12/07 05:04:51;;;;;;;12.57;2.10;;;3.90;99.90;;;;;;4083691;29;20195;-89
2021/12/07 05:06:57;;;;;;;11.87;3.20;;;3.90;99.90;;;;;;4099580;29;20163;-89
2021/12/07 05:09:07;;;;;;;16.67;3.97;;;3.80;99.90;;;;;;4083820;29;20176;-90
2021/12/07 05:15:58;;;;;;;14.77;2.60;;;3.70;99.90;;;;;;4102279;28;20274;-89
2021/12/07 05:18:07;;;;;;;10.53;1.70;;;3.70;99.90;;;;;;4102413;28;20587;-90
2021/12/07 05:38:42;;;;;;;18.17;2.50;;;3.60;99.90;;;;;;4102580;29;20274;-90
2021/12/07 05:40:43;;;;;;;10.60;2.40;;;3.60;99.90;;;;;;4086321;29;20186;-91
2021/12/07 05:42:44;;;;;;;13.83;2.80;;;3.60;99.90;;;;;;4086368;29;20214;-89
2021/12/07 05:44:45;;;;;;;15.23;3.73;;;3.70;99.90;;;;;;4086156;29;20211;-89
2021/12/07 05:46:46;;;;;;;24.47;2.90;;;3.70;99.90;;;;;;4086319;29;20186;-89
2021/12/07 05:48:46;;;;;;;15.23;2.87;;;3.70;99.90;;;;;;4087494;29;20250;-89
2021/12/07 05:50:47;;;;;;;14.77;3.20;;;3.60;99.90;;;;;;4091895;29;20178;-89
2021/12/07 05:52:48;;;;;;;21.63;2.63;;;3.60;99.90;;;;;;4100973;29;20219;-89
2021/12/07 05:54:49;;;;;;;14.53;2.37;;;3.60;99.90;;;;;;4106398;29;20247;-90
2021/12/07 05:56:50;;;;;;;18.83;2.37;;;3.60;99.90;;;;;;4086570;29;20186;-89
2021/12/07 05:58:51;;;;;;;14.27;2.37;;;3.60;99.90;;;;;;4085934;29;20545;-89
2021/12/07 06:00:57;;;;;;;17.80;2.73;;;3.60;99.90;;;;;;4085875;29;20172;-90
2021/12/07 06:03:04;;;;;;;14.87;2.80;;;3.60;99.90;;;;;;4085845;29;20290;-89
2021/12/07 06:05:05;;;;;;;14.47;2.50;;;3.60;99.90;;;;;;4101318;29;20201;-88
2021/12/07 06:07:08;;;;;;;18.37;2.67;;;3.50;99.90;;;;;;4101950;29;20175;-89
2021/12/07 06:09:08;;;;;;;17.83;2.93;;;3.60;99.90;;;;;;4085653;29;20176;-90
2021/12/07 06:11:10;;;;;;;18.93;2.40;;;3.60;99.90;;;;;;4085848;29;20532;-89
2021/12/07 06:13:10;;;;;;;17.20;3.10;;;3.50;99.90;;;;;;4101799;29;20203;-89
2021/12/07 06:15:13;;;;;;;15.90;2.57;;;3.60;99.90;;;;;;4101488;29;20206;-89
2021/12/07 06:17:14;;;;;;;21.17;2.93;;;3.60;99.90;;;;;;4085808;29;20182;-90
2021/12/07 06:19:15;;;;;;;20.60;2.83;;;3.50;99.90;;;;;;4101267;29;20175;-89
2021/12/07 06:21:16;;;;;;;20.83;3.20;;;3.60;99.90;;;;;;4085327;29;20670;-90
2021/12/07 06:23:18;;;;;;;17.27;2.80;;;3.60;99.90;;;;;;4084541;29;20247;-91
2021/12/07 06:25:19;;;;;;;19.07;3.17;;;3.30;99.90;;;;;;4085456;29;20203;-89
2021/12/07 06:27:19;;;;;;;16.43;3.23;;;3.20;99.90;;;;;;4085563;29;20176;-89
2021/12/07 06:29:20;;;;;;;21.97;3.00;;;3.20;99.90;;;;;;4085464;29;20175;-89
2021/12/07 06:31:21;;;;;;;17.87;2.80;;;3.20;99.90;;;;;;4085623;29;20180;-90
2021/12/07 06:33:25;;;;;;;16.60;2.50;;;3.20;99.90;;;;;;4101284;29;20211;-90
2021/12/07 06:35:25;;;;;;;14.13;2.50;;;3.10;99.90;;;;;;4085755;29;20274;-90
2021/12/07 06:37:27;;;;;;;20.20;2.93;;;3.00;99.90;;;;;;4101338;29;20179;-89
2021/12/07 06:39:28;;;;;;;19.60;2.57;;;3.00;99.90;;;;;;4085152;29;20179;-88
2021/12/07 06:41:28;;;;;;;16.97;2.50;;;3.00;99.90;;;;;;4085504;29;20215;-89
2021/12/07 06:43:30;;;;;;;18.63;2.87;;;3.00;99.90;;;;;;4085132;29;20699;-90
2021/12/07 06:45:31;;;;;;;11.13;2.57;;;3.00;99.90;;;;;;4085217;29;20191;-91
2021/12/07 06:47:32;;;;;;;16.47;2.97;;;2.90;99.90;;;;;;4085400;29;20816;-90
2021/12/07 06:49:33;;;;;;;18.37;3.20;;;2.80;99.90;;;;;;4101098;28;20179;-90
2021/12/07 06:51:34;;;;;;;18.03;2.93;;;2.70;99.90;;;;;;4085126;29;20172;-90
2021/12/07 06:53:38;;;;;;;13.83;3.00;;;2.60;99.90;;;;;;4085165;29;20235;-90
2021/12/07 06:55:39;;;;;;;15.47;2.63;;;2.70;99.90;;;;;;4084905;29;20187;-89
2021/12/07 06:57:40;;;;;;;16.00;2.63;;;2.70;99.90;;;;;;4085242;28;20187;-89
2021/12/07 06:59:40;;;;;;;15.57;2.80;;;2.70;99.90;;;;;;4100679;29;20178;-90
2021/12/07 07:01:41;;;;;;;18.57;3.20;;;2.60;99.90;;;;;;4085133;29;20184;-92
2021/12/07 07:03:42;;;;;;;17.83;2.73;;;2.60;99.90;;;;;;4085091;29;20273;-91
2021/12/07 07:05:43;;;;;;;21.40;3.17;;;2.70;99.90;;;;;;4100982;29;20289;-90
2021/12/07 07:07:44;;;;;;;11.87;2.80;;;2.70;99.90;;;;;;4085163;29;20191;-90
2021/12/07 07:09:45;;;;;;;19.43;3.13;;;2.70;99.90;;;;;;4084905;29;20675;-91
2021/12/07 07:11:46;;;;;;;16.00;3.40;;;2.60;99.90;;;;;;4084825;29;20179;-90
2021/12/07 07:13:48;;;;;;;16.83;2.90;;;2.60;99.90;;;;;;4084869;29;20284;-91
2021/12/07 07:15:48;;;;;;;19.27;2.73;;;2.60;99.90;;;;;;4100721;29;20179;-90
2021/12/07 07:17:51;;;;;;;15.83;2.47;;;2.60;99.90;;;;;;4084982;29;20183;-90
2021/12/07 07:19:52;;;;;;;16.63;2.53;;;2.60;99.90;;;;;;4084747;29;20180;-89
2021/12/07 07:21:52;;;;;;;23.73;3.10;;;2.60;99.90;;;;;;4084993;29;20178;-89
2021/12/07 07:23:54;;;;;;;20.63;2.80;;;2.60;99.90;;;;;;4084651;29;20680;-89
2021/12/07 07:25:55;;;;;;;16.47;3.17;;;2.50;99.90;;;;;;4084690;29;20172;-90
2021/12/07 07:27:57;;;;;;;9.57;2.47;;;2.50;99.90;;;;;;4084648;29;20186;-89
2021/12/07 07:29:58;;;;;;;21.37;3.17;;;2.40;99.90;;;;;;4084593;29;20199;-90
2021/12/07 07:31:58;;;;;;;14.20;2.50;;;2.50;99.90;;;;;;4084621;29;20182;-91
2021/12/07 07:33:59;;;;;;;19.47;2.90;;;2.60;99.90;;;;;;4084134;29;20212;-90
2021/12/07 07:36:00;;;;;;;19.20;3.30;;;2.50;99.90;;;;;;4084472;29;20240;-89
2021/12/07 07:38:02;;;;;;;14.07;3.57;;;2.30;99.90;;;;;;4084637;29;20294;-90
2021/12/07 07:40:06;;;;;;;11.80;2.67;;;2.50;99.90;;;;;;4100369;29;20182;-89
2021/12/07 07:42:09;;;;;;;15.97;2.50;;;2.50;99.90;;;;;;4084544;29;20168;-90
2021/12/07 07:44:22;;;;;;;12.93;3.00;;;2.50;99.90;;;;;;4085846;29;20219;-90
2021/12/07 07:46:26;;;;;;;17.20;3.13;;;2.50;99.90;;;;;;4084559;29;20274;-89
2021/12/07 07:48:27;;;;;;;11.90;2.77;;;2.70;99.90;;;;;;4084387;29;20643;-90
2021/12/07 07:50:28;;;;;;;16.40;2.50;;;2.60;99.90;;;;;;4084458;29;20203;-91
2021/12/07 07:52:29;;;;;;;14.70;2.70;;;2.60;99.90;;;;;;4084526;29;20243;-91
2021/12/07 07:54:30;;;;;;;16.37;2.73;;;2.60;99.90;;;;;;4099935;29;20187;-91
2021/12/07 07:56:32;;;;;;;14.77;2.90;;;2.60;99.90;;;;;;4084358;29;20588;-89
2021/12/07 07:58:33;;;;;;;18.50;3.40;;;2.70;99.90;;;;;;4084433;29;20171;-90
2021/12/07 08:00:34;;;;;;;19.30;2.63;;;2.60;99.90;;;;;;4084158;29;20214;-89
2021/12/07 08:02:35;;;;;;;18.03;2.73;;;2.70;99.90;;;;;;4084147;29;20211;-91
2021/12/07 08:04:36;;;;;;;12.20;2.20;;;2.80;99.90;;;;;;4084240;29;20202;-90
2021/12/07 08:06:36;;;;;;;14.17;2.60;;;2.80;99.90;;;;;;4084284;29;20188;-91
2021/12/07 08:08:37;;;;;;;15.50;2.90;;;2.80;99.90;;;;;;4099981;29;20175;-90
2021/12/07 08:10:39;;;;;;;12.40;3.17;;;2.90;99.90;;;;;;4084482;29;20202;-90
2021/12/07 08:12:39;;;;;;;13.57;2.63;;;3.00;99.90;;;;;;4084201;29;20176;-89
2021/12/07 08:14:40;;;;;;;16.67;2.97;;;3.10;99.90;;;;;;4099917;29;20209;-93
2021/12/07 08:16:41;;;;;;;15.87;3.37;;;3.20;99.90;;;;;;4084536;29;20163;-90
2021/12/07 08:18:47;;;;;;;16.23;3.17;;;3.40;99.90;;;;;;4084120;29;20179;-91
2021/12/07 08:20:48;;;;;;;16.83;3.30;;;3.50;99.90;;;;;;4084083;29;20183;-91
2021/12/07 08:22:49;;;;;;;18.20;2.90;;;3.70;99.90;;;;;;4084233;29;20215;-91
2021/12/07 08:24:50;;;;;;;15.23;2.90;;;4.00;99.90;;;;;;4085782;29;20227;-89
2021/12/07 08:26:51;;;;;;;15.70;2.67;;;4.20;99.90;;;;;;4094299;29;20163;-92
2021/12/07 08:28:54;;;;;;;18.27;2.97;;;4.30;99.90;;;;;;4104078;29;20192;-91
2021/12/07 08:30:55;;;;;;;13.80;3.07;;;4.30;99.90;;;;;;4088222;29;20258;-90
2021/12/07 08:32:56;;;;;;;9.43;2.50;;;4.00;99.90;;;;;;4084535;29;20224;-90
2021/12/07 08:34:57;;;;;;;17.13;3.17;;;3.80;99.90;;;;;;4084129;29;20203;-91
2021/12/07 08:36:58;;;;;;;11.43;2.30;;;3.80;99.90;;;;;;4100048;29;20669;-91
2021/12/07 08:38:59;;;;;;;9.53;2.50;;;4.00;99.90;;;;;;4084112;29;20243;-91
2021/12/07 08:41:00;;;;;;;14.60;2.47;;;4.10;99.90;;;;;;4084110;29;20175;-90
2021/12/07 08:43:01;;;;;;;12.60;2.23;;;4.10;99.90;;;;;;4084116;29;20242;-90
2021/12/07 08:45:04;;;;;;;15.13;2.93;;;4.40;99.90;;;;;;4084002;29;20564;-90
2021/12/07 08:47:05;;;;;;;15.97;2.67;;;4.30;99.90;;;;;;4087019;29;20210;-91
2021/12/07 08:49:06;;;;;;;16.00;2.67;;;4.30;99.90;;;;;;4103078;29;20171;-90
2021/12/07 08:51:09;;;;;;;14.83;2.77;;;4.60;99.90;;;;;;4087076;29;20267;-90
2021/12/07 08:53:13;;;;;;;16.20;2.23;;;4.60;99.90;;;;;;4086804;29;20168;-89
2021/12/07 09:01:39;;;;;;;13.77;2.70;;;5.00;99.90;;;;;;4102433;28;20174;-92
2021/12/07 09:03:40;;;;;;;16.50;2.60;;;4.80;99.90;;;;;;4089009;29;20223;-90
2021/12/07 09:05:40;;;;;;;13.93;3.07;;;4.80;99.90;;;;;;4102073;29;20207;-91
2021/12/07 09:07:41;;;;;;;20.90;3.23;;;5.10;99.90;;;;;;4086629;29;20596;-90
2021/12/07 09:09:43;;;;;;;18.27;2.63;;;5.10;99.90;;;;;;4086825;29;20175;-89
2021/12/07 09:11:44;;;;;;;11.33;2.60;;;5.00;99.90;;;;;;4086559;29;20571;-90
2021/12/07 09:13:45;;;;;;;15.73;3.20;;;4.70;99.90;;;;;;4086642;29;20648;-89
2021/12/07 09:15:46;;;;;;;20.77;2.90;;;4.70;99.90;;;;;;4086497;29;20603;-90
2021/12/07 09:17:47;;;;;;;15.87;2.87;;;4.70;99.90;;;;;;4086627;29;20176;-90
2021/12/07 09:19:48;;;;;;;14.03;2.50;;;4.60;99.90;;;;;;4102327;29;20179;-89
2021/12/07 09:21:49;;;;;;;12.97;2.60;;;4.70;99.90;;;;;;4086517;29;20214;-88
2021/12/07 09:23:51;;;;;;;13.13;2.23;;;4.30;99.90;;;;;;4086235;29;20226;-89
2021/12/07 09:25:53;;;;;;;19.17;2.97;;;4.30;99.90;;;;;;4086563;29;20183;-89
2021/12/07 09:27:54;;;;;;;20.27;2.67;;;4.20;99.90;;;;;;4086361;29;20251;-89
2021/12/07 09:29:54;;;;;;;17.63;2.60;;;4.20;99.90;;;;;;4102124;29;20183;-90
2021/12/07 09:31:55;;;;;;;14.47;2.93;;;4.50;99.90;;;;;;4086443;29;20167;-89
2021/12/07 09:33:57;;;;;;;6.73;1.97;;;4.60;99.90;;;;;;4086074;29;20660;-88
2021/12/07 09:35:58;;;;;;;15.47;4.83;;;4.50;99.90;;;;;;4086461;29;20176;-89
2021/12/07 09:37:59;;;;;;;16.87;2.77;;;4.50;99.90;;;;;;4086217;29;20179;-88
2021/12/07 09:40:01;;;;;;;13.07;2.50;;;4.70;99.90;;;;;;4086215;29;20179;-89
2021/12/07 09:42:02;;;;;;;7.83;1.80;;;4.80;99.90;;;;;;4101956;29;20651;-89
2021/12/07 09:44:05;;;;;;;11.93;2.20;;;5.00;99.90;;;;;;4085986;29;20219;-91
2021/12/07 09:46:09;;;;;;;13.23;2.07;;;5.00;99.90;;;;;;4102042;29;20214;-90
2021/12/07 09:48:12;;;;;;;19.10;3.13;;;5.00;99.90;;;;;;4086191;29;20184;-89
2021/12/07 09:50:17;;;;;;;10.83;2.30;;;5.00;99.90;;;;;;4101906;29;20266;-89
2021/12/07 09:52:17;;;;;;;16.07;2.80;;;5.00;99.90;;;;;;4085999;29;20703;-89
2021/12/07 09:54:18;;;;;;;14.57;2.63;;;5.20;99.90;;;;;;4086132;29;20199;-89
2021/12/07 09:56:21;;;;;;;16.20;2.70;;;5.10;99.90;;;;;;4086089;29;20625;-90
2021/12/07 09:58:22;;;;;;;11.27;2.47;;;5.20;99.90;;;;;;4086271;29;20274;-89
2021/12/07 10:00:25;;;;;;;25.03;2.57;;;5.30;99.90;;;;;;4085921;29;20261;-88
2021/12/07 10:02:26;;;;;;;18.27;2.63;;;5.30;99.90;;;;;;4086364;29;20250;-90
2021/12/07 10:04:27;;;;;;;10.77;2.03;;;5.30;99.90;;;;;;4086060;29;20199;-89
2021/12/07 10:06:28;;;;;;;19.93;3.30;;;5.40;99.90;;;;;;4086263;29;20235;-89
2021/12/07 10:08:29;;;;;;;16.90;2.77;;;5.10;99.90;;;;;;4086083;29;20231;-89
2021/12/07 10:10:36;;;;;;;16.03;2.50;;;5.10;99.90;;;;;;4101489;29;20179;-89
2021/12/07 10:12:37;;;;;;;12.27;2.30;;;5.10;99.90;;;;;;4085976;29;20655;-89
2021/12/07 10:14:40;;;;;;;17.43;2.53;;;5.10;99.90;;;;;;4085568;29;20267;-90
2021/12/07 10:16:50;;;;;;;18.17;2.70;;;5.20;99.90;;;;;;4085580;29;20223;-88
2021/12/07 10:18:51;;;;;;;14.40;2.50;;;5.10;99.90;;;;;;4101630;29;20257;-89
2021/12/07 10:20:56;;;;;;;12.03;2.50;;;5.10;99.90;;;;;;4085714;29;20260;-89
2021/12/07 10:23:00;;;;;;;12.73;2.23;;;5.30;99.90;;;;;;4085662;29;20851;-89
2021/12/07 10:25:04;;;;;;;16.03;2.70;;;5.30;99.90;;;;;;4085379;29;20589;-89
2021/12/07 10:27:06;;;;;;;21.97;2.63;;;5.70;99.90;;;;;;4085631;29;20243;-90
2021/12/07 10:29:16;;;;;;;13.47;2.43;;;5.60;99.90;;;;;;4085643;29;20235;-89
2021/12/07 10:31:20;;;;;;;9.57;2.57;;;5.50;99.90;;;;;;4085495;29;20230;-90
2021/12/07 10:33:38;;;;;;;16.50;2.47;;;5.50;99.90;;;;;;4085471;29;20184;-89
2021/12/07 10:35:39;;;;;;;10.17;1.93;;;5.60;99.90;;;;;;4085438;29;20207;-89
2021/12/07 10:37:40;;;;;;;14.13;2.23;;;5.60;99.90;;;;;;4085731;29;20179;-91
2021/12/07 10:39:55;;;;;;;13.37;2.27;;;5.50;99.90;;;;;;4089868;29;20175;-91
2021/12/07 10:42:00;;;;;;;15.73;2.17;;;5.30;99.90;;;;;;4086538;29;20642;-91
2021/12/07 10:44:05;;;;;;;14.43;2.40;;;5.40;99.90;;;;;;4085995;29;20215;-90
2021/12/07 10:46:30;;;;;;;11.27;2.33;;;5.50;99.90;;;;;;4085658;29;20180;-90
2021/12/07 10:48:31;;;;;;;17.20;2.97;;;5.70;99.90;;;;;;4102651;29;20183;-90
2021/12/07 10:50:38;;;;;;;18.53;3.33;;;5.80;99.90;;;;;;4085902;29;20606;-89
2021/12/07 10:52:45;;;;;;;23.47;2.53;;;5.70;99.90;;;;;;4085830;29;20183;-89
2021/12/07 10:54:58;;;;;;;16.90;2.77;;;6.00;99.90;;;;;;4100918;29;20293;-89
2021/12/07 10:57:02;;;;;;;13.60;2.87;;;6.40;99.90;;;;;;4085257;29;20179;-89
2021/12/07 10:59:08;;;;;;;14.93;2.90;;;6.60;99.90;;;;;;4086451;29;20167;-90
2021/12/07 11:01:09;;;;;;;15.87;3.60;;;6.50;99.90;;;;;;4113380;29;20175;-90
2021/12/07 11:03:11;;;;;;;14.70;3.37;;;6.60;99.90;;;;;;4103176;29;20195;-88
2021/12/07 11:05:19;;;;;;;10.47;2.60;;;6.60;99.90;;;;;;4105277;29;20188;-90
2021/12/07 11:07:30;;;;;;;20.43;3.60;;;6.60;99.90;;;;;;4089790;29;20179;-90
2021/12/07 11:09:45;;;;;;;13.43;3.67;;;6.50;99.90;;;;;;4085707;29;20182;-89
2021/12/07 11:11:46;;;;;;;16.13;3.97;;;6.70;99.90;;;;;;4101767;28;20175;-89
2021/12/07 11:13:50;;;;;;;17.63;3.47;;;6.80;99.90;;;;;;4100937;29;20175;-88
2021/12/07 11:16:00;;;;;;;12.23;3.77;;;6.80;99.90;;;;;;4085015;29;20211;-89
2021/12/07 11:18:08;;;;;;;19.90;5.00;;;6.80;99.90;;;;;;4085897;29;20239;-88
2021/12/07 11:20:10;;;;;;;15.33;4.53;;;6.90;99.90;;;;;;4086168;29;20175;-89
2021/12/07 11:22:17;;;;;;;14.87;4.13;;;6.80;99.90;;;;;;4085703;29;20179;-89
2021/12/07 11:24:18;;;;;;;15.27;4.00;;;7.00;99.90;;;;;;4100561;28;20235;-90
2021/12/07 11:31:11;;;;;;;16.87;4.30;;;7.00;99.90;;;;;;4100830;29;20182;-89
2021/12/07 11:33:23;;;;;;;13.03;3.93;;;7.10;99.90;;;;;;4084990;29;20171;-89
2021/12/07 11:35:27;;;;;;;19.13;4.73;;;7.10;99.90;;;;;;4084643;29;20203;-90
2021/12/07 11:37:35;;;;;;;16.37;5.80;;;7.30;99.90;;;;;;4084769;29;20666;-89
2021/12/07 11:39:38;;;;;;;16.20;5.53;;;7.40;99.90;;;;;;4100493;29;20179;-90
2021/12/07 11:41:39;;;;;;;16.80;5.43;;;7.50;99.90;;;;;;4084573;29;20179;-90
2021/12/07 11:44:06;;;;;;;18.10;5.57;;;7.60;99.90;;;;;;4116106;28;20252;-89
2021/12/07 11:46:18;;;;;;;19.57;5.00;;;7.60;99.90;;;;;;4103129;29;20555;-93
2021/12/07 11:48:19;;;;;;;18.47;5.10;;;7.20;99.90;;;;;;4087625;29;20279;-91
2021/12/07 11:50:22;;;;;;;19.37;5.90;;;7.20;99.90;;;;;;4100200;29;20644;-92
2021/12/07 11:52:23;;;;;;;14.80;5.00;;;7.20;99.90;;;;;;4084380;29;20269;-92
2021/12/07 11:54:28;;;;;;;18.37;4.70;;;7.30;99.90;;;;;;4084338;29;20203;-90
2021/12/07 11:56:28;;;;;;;12.90;4.47;;;7.30;99.90;;;;;;4084503;29;20176;-92
2021/12/07 11:58:29;;;;;;;21.30;4.40;;;7.10;99.90;;;;;;4100192;29;20588;-92
2021/12/07 12:00:35;;;;;;;12.67;4.40;;;7.20;99.90;;;;;;4084312;29;20191;-92
2021/12/07 12:02:35;;;;;;;20.57;4.10;;;7.30;99.90;;;;;;4084411;29;20183;-90
2021/12/07 12:04:36;;;;;;;12.60;3.00;;;7.40;99.90;;;;;;4100190;29;20683;-89
2021/12/07 12:06:38;;;;;;;16.40;3.77;;;7.30;99.90;;;;;;4084046;29;20175;-90
2021/12/07 12:08:40;;;;;;;11.20;3.13;;;7.30;99.90;;;;;;4099916;29;20250;-90
2021/12/07 12:10:45;;;;;;;17.57;3.47;;;7.10;99.90;;;;;;4084617;29;20178;-91
2021/12/07 12:12:51;;;;;;;11.37;2.87;;;7.10;99.90;;;;;;4084285;29;20176;-89
2021/12/07 12:14:52;;;;;;;14.30;3.10;;;7.10;99.90;;;;;;4099691;29;20207;-89
2021/12/07 12:16:55;;;;;;;14.47;3.20;;;6.90;99.90;;;;;;4100207;29;20266;-89
2021/12/07 12:19:16;;;;;;;15.03;3.47;;;7.10;99.90;;;;;;4084285;29;20183;-90
2021/12/07 12:21:20;;;;;;;15.57;3.27;;;7.30;99.90;;;;;;4086461;29;20243;-90
2021/12/07 12:23:29;;;;;;;16.90;3.53;;;7.40;99.90;;;;;;4087726;29;20215;-90
2021/12/07 12:25:30;;;;;;;15.40;3.50;;;7.10;99.90;;;;;;4103172;29;20210;-90
2021/12/07 12:27:34;;;;;;;11.03;3.30;;;7.00;99.90;;;;;;4087378;29;20783;-89